九州TAF電文


北九州(RJFR)
3/3 2h
TAF RJFR 021706Z 0218/0400 24010KT 9999 FEW030 BKN045=

福岡(RJFF)
3/3 2h
TAF RJFF 021706Z 0218/0400 15013KT 9999 FEW030 BKN045 BECMG
0302/0304 25011KT BECMG 0309/0312 15007KT=

佐賀(RJFS)
3/3 2h
TAF RJFS 021708Z 0218/0400 11006KT 9999 FEW030 BKN045 BECMG
0306/0309 22009KT BECMG 0315/0318 02004KT=

大分(RJFO)
3/3 2h
TAF RJFO 021705Z 0218/0400 22005KT 9999 FEW030 BECMG 0301/0303
31007KT BECMG 0309/0312 24005KT=

長崎(RJFU)
3/3 2h
TAF RJFU 021708Z 0218/0400 14009KT 9999 FEW030 BKN045 BECMG
0303/0305 25006KT BECMG 0318/0321 14006KT=

熊本(RJFT)
3/3 2h
TAF RJFT 021708Z 0218/0400 07005KT 9999 FEW030 SCT050 BECMG
0222/0300 25006KT BECMG 0312/0315 12004KT=

宮崎(RJFM)
3/3 2h
TAF RJFM 021705Z 0218/0400 27015KT 9999 FEW030=

鹿児島(RJFK)
3/3 2h
TAF RJFK 021705Z 0218/0400 34007KT 9999 FEW025 SCT045=

那覇(ROAH)
3/3 2h
TAF ROAH 021706Z 0218/0400 03010KT 9999 FEW025 BKN035 BECMG
0312/0315 10006KT=

石垣(ROIG)
3/3 2h
TAF ROIG 021706Z 0218/0400 04012KT 9999 FEW008 BKN015 TEMPO
0218/0300 4000 -SHRA BR BKN008 BKN012 BECMG 0312/0315
11015KT=
Copyright(c) 2014 International Meteorological & Oceanographic Consultants Co,.Ltd. All Rights Reserved. Design by http://f-tpl.com